createdAt,value
2018-02-12T04:32:25.564Z,6.57
2018-02-12T04:34:53.427Z,6.50
2018-02-12T04:37:21.239Z,5.72
2018-02-12T04:39:49.771Z,5.72
2018-02-12T04:42:17.535Z,6.20
2018-02-12T04:44:45.344Z,5.53
2018-02-12T04:47:13.879Z,5.15
2018-02-12T04:49:41.642Z,6.22
2018-02-12T04:52:09.508Z,5.80
2018-02-12T04:54:37.271Z,6.30
2018-02-12T04:57:05.032Z,5.80
2018-02-12T04:59:32.898Z,5.53
2018-02-12T05:02:00.599Z,6.50
2018-02-12T05:04:29.142Z,6.07
2018-02-12T05:06:57.006Z,6.55
2018-02-12T05:09:25.181Z,6.05
2018-02-12T05:11:53.044Z,6.45
2018-02-12T05:14:20.912Z,6.75
2018-02-12T05:16:48.673Z,6.50
2018-02-12T05:19:16.538Z,6.57
2018-02-12T05:21:44.301Z,6.10
2018-02-12T05:24:12.063Z,6.30
2018-02-12T05:26:39.928Z,6.55
2018-02-12T05:29:07.659Z,6.40
2018-02-12T05:31:35.456Z,7.28
2018-02-12T05:34:03.219Z,6.15
2018-02-12T05:36:31.085Z,6.03
2018-02-12T05:38:58.848Z,6.28
2018-02-12T05:41:26.610Z,6.18
2018-02-12T05:43:54.473Z,6.60
2018-02-12T05:46:22.236Z,6.30
2018-02-12T05:48:50.101Z,7.10
2018-02-12T05:51:17.867Z,6.45
2018-02-12T05:53:45.730Z,7.12
2018-02-12T05:56:13.767Z,5.85
2018-02-12T05:58:44.019Z,6.60
2018-02-12T06:01:11.989Z,6.30
2018-02-12T06:03:39.754Z,5.87
2018-02-12T06:06:07.515Z,6.20
2018-02-12T06:08:35.379Z,6.45
2018-02-12T06:11:03.142Z,5.53
2018-02-12T06:13:31.008Z,6.80
2018-02-12T06:15:58.770Z,7.12
2018-02-12T06:18:26.636Z,9.77
2018-02-12T06:20:54.398Z,8.65
2018-02-12T06:23:22.263Z,8.23
2018-02-12T06:25:50.034Z,7.68
2018-02-12T06:28:17.790Z,7.30
2018-02-12T06:30:45.655Z,7.90
2018-02-12T06:33:13.520Z,6.55
2018-02-12T06:35:41.284Z,8.15
2018-02-12T06:38:09.149Z,6.80
2018-02-12T06:40:36.912Z,5.25
2018-02-12T06:43:04.776Z,5.78
2018-02-12T06:45:32.543Z,5.70
2018-02-12T06:48:00.243Z,5.97
2018-02-12T06:50:28.886Z,4.80
2018-02-12T06:52:56.571Z,6.07
2018-02-12T06:55:24.308Z,5.65
2018-02-12T06:57:52.036Z,5.72
2018-02-12T07:00:19.731Z,5.05
2018-02-12T07:02:47.430Z,4.90
2018-02-12T07:05:15.974Z,5.72
2018-02-12T07:07:43.702Z,7.15
2018-02-12T07:10:11.450Z,7.18
2018-02-12T07:12:39.151Z,6.30
2018-02-12T07:15:06.857Z,4.68
2018-02-12T07:17:35.326Z,5.70
2018-02-12T07:20:03.009Z,5.55
2018-02-12T07:22:31.486Z,4.70
2018-02-12T07:24:59.953Z,5.10
2018-02-12T07:27:28.451Z,5.28
2018-02-12T07:29:56.910Z,5.10
2018-02-12T07:32:25.384Z,5.70
2018-02-12T07:34:53.082Z,5.87
2018-02-12T07:37:20.755Z,6.45
2018-02-12T07:39:48.475Z,4.90
2018-02-12T07:42:17.035Z,6.40
2018-02-12T07:44:44.892Z,6.03
2018-02-12T07:47:12.760Z,6.22
2018-02-12T07:49:40.622Z,5.72
2018-02-12T07:52:08.385Z,5.37
2018-02-12T07:54:36.255Z,6.30
2018-02-12T07:57:04.116Z,6.10
2018-02-12T07:59:31.880Z,6.90
2018-02-12T08:01:59.641Z,6.15
2018-02-12T08:04:27.405Z,6.85
2018-02-12T08:06:55.167Z,6.12
2018-02-12T08:09:23.033Z,6.35
2018-02-12T08:11:50.795Z,5.97
2018-02-12T08:14:18.660Z,6.30
2018-02-12T08:16:46.423Z,4.72
2018-02-12T08:19:14.288Z,5.10
2018-02-12T08:21:42.051Z,4.80
2018-02-12T08:24:09.916Z,5.82
2018-02-12T08:26:37.782Z,4.45
2018-02-12T08:29:05.561Z,5.10
2018-02-12T08:31:33.410Z,5.03
2018-02-12T08:34:01.276Z,5.07
2018-02-12T08:36:29.039Z,4.30
2018-02-12T08:38:56.845Z,5.12
2018-02-12T08:41:25.383Z,5.18
2018-02-12T08:43:53.249Z,4.55
2018-02-12T08:46:21.114Z,3.83
2018-02-12T08:48:48.878Z,3.50
2018-02-12T08:51:16.640Z,3.85
2018-02-12T08:53:44.403Z,4.80
2018-02-12T08:56:12.165Z,4.75
2018-02-12T08:58:39.929Z,4.65
2018-02-12T09:01:07.795Z,5.18
2018-02-12T09:03:35.556Z,3.62
2018-02-12T09:06:03.320Z,4.35
2018-02-12T09:08:31.134Z,3.83
2018-02-12T09:10:58.994Z,4.15
2018-02-12T09:13:27.632Z,4.43
2018-02-12T09:15:55.396Z,4.10
2018-02-12T09:18:23.159Z,4.00
2018-02-12T09:20:51.026Z,4.00
2018-02-12T09:23:18.788Z,4.40
2018-02-12T09:25:46.552Z,3.33
2018-02-12T09:28:14.427Z,4.20
2018-02-12T09:30:42.294Z,3.60
2018-02-12T09:33:10.148Z,3.60
2018-02-12T09:35:38.016Z,4.20
2018-02-12T09:38:05.776Z,3.70
2018-02-12T09:40:33.645Z,3.80
2018-02-12T09:43:01.404Z,3.92
2018-02-12T09:45:29.268Z,4.47
2018-02-12T09:47:57.032Z,3.50
2018-02-12T09:50:24.898Z,4.18
2018-02-12T09:52:52.662Z,4.50
2018-02-12T09:55:20.422Z,4.35
2018-02-12T09:57:48.238Z,3.42
2018-02-12T10:00:16.053Z,3.30
2018-02-12T10:02:43.915Z,3.30
2018-02-12T10:05:11.780Z,3.40
2018-02-12T10:07:39.543Z,3.95
2018-02-12T10:10:07.408Z,3.87
2018-02-12T10:12:35.171Z,3.60
2018-02-12T10:15:02.934Z,3.33
2018-02-12T10:17:30.800Z,3.45
2018-02-12T10:19:58.563Z,3.12
2018-02-12T10:22:26.325Z,3.25
2018-02-12T10:24:54.087Z,3.08
2018-02-12T10:27:21.953Z,3.45
2018-02-12T10:29:49.718Z,3.50
2018-02-12T10:32:17.583Z,3.33
2018-02-12T10:34:45.346Z,3.40
2018-02-12T10:37:13.213Z,2.95
2018-02-12T10:39:40.976Z,3.53
2018-02-12T10:42:08.838Z,6.93
2018-02-12T10:44:36.601Z,4.72
2018-02-12T10:47:04.467Z,3.55
2018-02-12T10:49:32.233Z,3.95
2018-02-12T10:51:59.993Z,3.78
2018-02-12T10:54:27.857Z,3.75
2018-02-12T10:56:55.622Z,3.65
2018-02-12T10:59:23.384Z,4.80
2018-02-12T11:01:51.249Z,3.40
2018-02-12T11:04:19.016Z,3.40
2018-02-12T11:06:46.775Z,3.45
2018-02-12T11:09:14.643Z,2.95
2018-02-12T11:11:42.403Z,3.20
2018-02-12T11:14:10.268Z,3.17
2018-02-12T11:16:38.032Z,4.10
2018-02-12T11:19:05.794Z,3.70
2018-02-12T11:21:33.659Z,3.35
2018-02-12T11:24:01.422Z,4.15
2018-02-12T11:26:29.186Z,4.07
2018-02-12T11:28:57.051Z,3.90
2018-02-12T11:31:24.814Z,3.80
2018-02-12T11:33:52.517Z,3.58
2018-02-12T11:36:21.164Z,3.22
2018-02-12T11:38:48.921Z,4.70
2018-02-12T11:41:16.788Z,3.85
2018-02-12T11:43:44.550Z,4.10
2018-02-12T11:46:12.313Z,4.32
2018-02-12T11:48:40.178Z,3.97
2018-02-12T11:51:07.854Z,3.30
2018-02-12T11:53:35.555Z,3.30
2018-02-12T11:56:03.924Z,3.83
2018-02-12T11:58:32.363Z,3.95
2018-02-12T12:01:00.103Z,3.83
2018-02-12T12:03:27.779Z,4.28
2018-02-12T12:05:55.448Z,3.50
2018-02-12T12:08:23.145Z,3.37
2018-02-12T12:10:51.785Z,3.22
2018-02-12T12:13:19.494Z,3.10
2018-02-12T12:15:47.310Z,3.50
2018-02-12T12:18:15.175Z,4.15
2018-02-12T12:20:43.041Z,4.03
2018-02-12T12:23:10.836Z,3.60
2018-02-12T12:25:39.386Z,3.75
2018-02-12T12:28:07.154Z,3.33
2018-02-12T12:30:35.018Z,3.70
2018-02-12T12:33:02.879Z,4.37
2018-02-12T12:35:30.646Z,3.42
2018-02-12T12:37:58.407Z,4.07
2018-02-12T12:40:26.271Z,4.05
2018-02-12T12:42:54.036Z,3.80
2018-02-12T12:45:21.901Z,4.40
2018-02-12T12:47:49.701Z,4.75
2018-02-12T12:50:18.244Z,4.55
2018-02-12T12:52:46.110Z,4.03
2018-02-12T12:55:13.785Z,4.25
2018-02-12T12:57:42.609Z,4.62
2018-02-12T13:00:10.422Z,4.07
2018-02-12T13:02:38.287Z,4.85
2018-02-12T13:05:06.051Z,4.25
2018-02-12T13:07:33.916Z,4.00
2018-02-12T13:10:01.682Z,3.97
2018-02-12T13:12:30.123Z,3.95
2018-02-12T13:14:57.846Z,4.75
2018-02-12T13:17:25.572Z,4.60
2018-02-12T13:19:53.345Z,5.65
2018-02-12T13:22:21.108Z,3.92
2018-02-12T13:24:48.973Z,4.72
2018-02-12T13:27:16.736Z,4.32
2018-02-12T13:29:44.538Z,5.55
2018-02-12T13:32:13.081Z,4.90
2018-02-12T13:34:40.845Z,6.35
2018-02-12T13:37:08.609Z,6.80
2018-02-12T13:39:36.370Z,7.43
2018-02-12T13:42:04.132Z,6.25
2018-02-12T13:44:31.998Z,5.12
2018-02-12T13:46:59.761Z,4.30
2018-02-12T13:49:27.524Z,5.15
2018-02-12T13:51:55.389Z,5.43
2018-02-12T13:54:23.254Z,4.60
2018-02-12T13:56:51.017Z,5.78
2018-02-12T13:59:19.193Z,5.00
2018-02-12T14:01:47.061Z,4.85
2018-02-12T14:04:14.922Z,5.05
2018-02-12T14:06:42.787Z,5.80
2018-02-12T14:09:10.551Z,5.45
2018-02-12T14:11:38.311Z,5.50
2018-02-12T14:14:06.177Z,5.62
2018-02-12T14:16:33.941Z,6.10
2018-02-12T14:19:01.707Z,7.30
2018-02-12T14:21:29.569Z,6.93
2018-02-12T14:23:57.331Z,7.05
2018-02-12T14:26:25.095Z,6.75
2018-02-12T14:28:52.968Z,5.22
2018-02-12T14:31:20.726Z,5.95
2018-02-12T14:33:48.590Z,5.25
2018-02-12T14:36:16.351Z,5.43
2018-02-12T14:38:44.114Z,6.47
2018-02-12T14:41:11.985Z,7.18
2018-02-12T14:43:39.844Z,5.93
2018-02-12T14:46:10.255Z,7.10
2018-02-12T14:48:39.582Z,7.50
2018-02-12T14:51:08.254Z,5.55
2018-02-12T14:53:36.016Z,6.80
2018-02-12T14:56:03.883Z,7.35
2018-02-12T14:58:31.582Z,7.53
2018-02-12T15:01:00.231Z,8.02
2018-02-12T15:03:27.988Z,8.20
2018-02-12T15:05:55.854Z,8.05
2018-02-12T15:08:23.617Z,7.62
2018-02-12T15:10:51.380Z,8.20
2018-02-12T15:13:19.245Z,8.68
2018-02-12T15:15:47.008Z,9.50
2018-02-12T15:18:14.771Z,9.10
2018-02-12T15:20:42.637Z,9.05
2018-02-12T15:23:10.402Z,9.10
2018-02-12T15:25:38.268Z,9.18
2018-02-12T15:28:06.086Z,9.30
2018-02-12T15:30:34.609Z,8.65
2018-02-12T15:33:02.373Z,9.25
2018-02-12T15:35:30.136Z,9.15
2018-02-12T15:37:58.000Z,11.02
2018-02-12T15:40:27.402Z,9.70
2018-02-12T15:42:55.267Z,9.00
2018-02-12T15:45:22.983Z,10.10
2018-02-12T15:47:50.794Z,10.13
2018-02-12T15:50:18.658Z,9.90
2018-02-12T15:52:46.422Z,9.65
2018-02-12T15:55:14.287Z,9.73
2018-02-12T15:57:42.049Z,9.55
2018-02-12T16:00:09.812Z,9.48
2018-02-12T16:02:37.677Z,9.52
2018-02-12T16:05:05.441Z,10.07
2018-02-12T16:07:33.203Z,9.50
2018-02-12T16:10:01.068Z,9.15
2018-02-12T16:12:28.934Z,10.23
2018-02-12T16:14:56.700Z,8.45
2018-02-12T16:17:24.414Z,8.60
2018-02-12T16:19:52.222Z,9.45
2018-02-12T16:22:19.986Z,9.48
2018-02-12T16:24:47.748Z,10.02
2018-02-12T16:27:15.616Z,10.05
2018-02-12T16:29:43.479Z,10.18
2018-02-12T16:32:11.449Z,11.15
2018-02-12T16:34:39.312Z,10.73
2018-02-12T16:37:07.075Z,11.90
2018-02-12T16:39:34.939Z,10.88
2018-02-12T16:42:02.703Z,11.43
2018-02-12T16:44:30.570Z,11.05
2018-02-12T16:46:58.331Z,10.90
2018-02-12T16:49:26.197Z,11.38
2018-02-12T16:51:53.964Z,11.10
2018-02-12T16:54:21.824Z,11.30
2018-02-12T16:56:49.590Z,12.20
2018-02-12T16:59:17.453Z,11.52
2018-02-12T17:01:45.216Z,12.10
2018-02-12T17:04:13.082Z,11.45
2018-02-12T17:06:40.947Z,11.95
2018-02-12T17:09:08.710Z,11.75
2018-02-12T17:11:36.576Z,12.35
2018-02-12T17:14:04.337Z,10.65
2018-02-12T17:16:32.053Z,12.63
2018-02-12T17:18:59.966Z,16.17
2018-02-12T17:21:27.831Z,11.25
2018-02-12T17:23:55.598Z,11.60
2018-02-12T17:26:23.459Z,12.57
2018-02-12T17:28:51.223Z,13.25
2018-02-12T17:31:19.090Z,20.40
2018-02-12T17:33:46.955Z,24.05
2018-02-12T17:36:14.715Z,18.23
2018-02-12T17:38:42.580Z,13.62
2018-02-12T17:41:10.323Z,12.52
2018-02-12T17:43:38.028Z,9.15
2018-02-12T17:46:05.735Z,5.32
2018-02-12T17:48:34.339Z,3.30
2018-02-12T17:51:02.007Z,2.90
2018-02-12T17:53:29.754Z,2.10
2018-02-12T17:55:57.455Z,3.05
2018-02-12T17:58:25.146Z,2.42
2018-02-12T18:00:53.658Z,2.90
2018-02-12T18:03:21.363Z,5.15
2018-02-12T18:05:49.066Z,4.45
2018-02-12T18:08:16.807Z,2.70
2018-02-12T18:10:45.342Z,2.40
2018-02-12T18:13:13.104Z,2.50
2018-02-12T18:15:40.971Z,3.05
2018-02-12T18:18:08.733Z,3.05
2018-02-12T18:20:36.598Z,3.83
2018-02-12T18:23:04.361Z,4.55
2018-02-12T18:25:32.078Z,3.70
2018-02-12T18:27:59.887Z,3.87
2018-02-12T18:30:28.016Z,5.30
2018-02-12T18:32:57.937Z,7.68
2018-02-12T18:35:26.373Z,8.95
2018-02-12T18:37:55.036Z,5.40
2018-02-12T18:40:23.031Z,5.32
2018-02-12T18:42:51.686Z,5.35
2018-02-12T18:45:19.657Z,5.32
2018-02-12T18:47:47.417Z,7.32
2018-02-12T18:50:15.283Z,6.18
2018-02-12T18:52:43.046Z,6.55
2018-02-12T18:55:10.858Z,6.45
2018-02-12T18:57:39.391Z,7.65
2018-02-12T19:00:07.108Z,7.43
2018-02-12T19:02:34.917Z,8.07
2018-02-12T19:05:02.679Z,8.52
2018-02-12T19:07:30.600Z,8.90
2018-02-12T19:09:58.462Z,7.80
2018-02-12T19:12:27.097Z,9.50
2018-02-12T19:14:54.961Z,7.00
2018-02-12T19:17:22.828Z,8.60
2018-02-12T19:19:50.690Z,8.95
2018-02-12T19:22:18.557Z,9.20
2018-02-12T19:24:46.318Z,8.73
2018-02-12T19:27:14.184Z,8.65
2018-02-12T19:29:41.948Z,9.27
2018-02-12T19:32:09.812Z,9.57
2018-02-12T19:34:37.677Z,10.00
2018-02-12T19:37:05.440Z,9.13
2018-02-12T19:39:33.327Z,9.88
2018-02-12T19:42:01.111Z,8.48
2018-02-12T19:44:29.650Z,7.75
2018-02-12T19:46:57.414Z,8.55
2018-02-12T19:49:25.278Z,9.32
2018-02-12T19:51:53.096Z,10.00
2018-02-12T19:54:21.068Z,10.23
2018-02-12T19:56:48.874Z,9.63
2018-02-12T19:59:16.640Z,9.40
2018-02-12T20:01:44.503Z,10.70
2018-02-12T20:04:12.368Z,8.57
2018-02-12T20:06:40.131Z,9.40
2018-02-12T20:09:07.996Z,8.70
2018-02-12T20:11:35.711Z,7.32
2018-02-12T20:14:03.624Z,8.52
2018-02-12T20:16:31.389Z,8.98
2018-02-12T20:18:59.149Z,7.32
2018-02-12T20:21:27.015Z,35.03
2018-02-12T20:23:54.779Z,23.98
2018-02-12T20:26:22.603Z,26.30
2018-02-12T20:28:50.508Z,20.80
2018-02-12T20:31:18.276Z,9.82
2018-02-12T20:33:46.036Z,8.10
2018-02-12T20:36:13.903Z,6.72
2018-02-12T20:38:41.765Z,5.82
2018-02-12T20:41:09.528Z,6.72
2018-02-12T20:43:37.235Z,5.25
2018-02-12T20:46:05.873Z,6.50
2018-02-12T20:48:33.555Z,4.87
2018-02-12T20:51:01.302Z,5.35
2018-02-12T20:53:29.004Z,6.00
2018-02-12T20:55:57.542Z,4.50
2018-02-12T20:58:25.404Z,4.25
2018-02-12T21:00:53.179Z,4.57
2018-02-12T21:03:21.033Z,5.00
2018-02-12T21:05:48.838Z,6.22
2018-02-12T21:08:17.378Z,7.18
2018-02-12T21:10:45.447Z,4.62
2018-02-12T21:13:13.313Z,4.05
2018-02-12T21:15:41.178Z,4.65
2018-02-12T21:18:11.612Z,20.80
2018-02-12T21:20:40.621Z,27.80
2018-02-12T21:23:09.502Z,31.50
2018-02-12T21:25:38.293Z,25.08
2018-02-12T21:28:07.175Z,18.98
2018-02-12T21:30:38.960Z,5.28
2018-02-12T21:33:06.695Z,10.35
2018-02-12T21:35:34.432Z,17.60
2018-02-12T21:38:02.183Z,4.95
2018-02-12T21:40:29.888Z,4.15
2018-02-12T21:42:57.571Z,3.90
2018-02-12T21:45:26.041Z,3.83
2018-02-12T21:47:54.513Z,5.60
2018-02-12T21:50:22.271Z,4.85
2018-02-12T21:52:49.974Z,4.62
2018-02-12T21:55:17.776Z,3.62
2018-02-12T21:57:45.522Z,4.97
2018-02-12T22:00:13.198Z,4.97
2018-02-12T22:02:40.897Z,4.40
2018-02-12T22:05:09.430Z,3.80
2018-02-12T22:07:37.946Z,4.30
2018-02-12T22:10:06.197Z,4.12
2018-02-12T22:12:34.074Z,4.60
2018-02-12T22:15:01.870Z,4.15
2018-02-12T22:17:30.407Z,3.90
2018-02-12T22:19:59.930Z,3.90
2018-02-12T22:22:27.965Z,4.72
2018-02-12T22:24:55.684Z,4.60
2018-02-12T22:27:24.159Z,5.68
2018-02-12T22:29:52.612Z,4.22
2018-02-12T22:32:20.330Z,3.75
2018-02-12T22:34:48.033Z,3.65
2018-02-12T22:37:15.738Z,3.85
2018-02-12T22:39:43.475Z,5.10
2018-02-12T22:42:11.163Z,3.83
2018-02-12T22:44:38.866Z,4.57
2018-02-12T22:47:06.590Z,6.90
2018-02-12T22:49:34.291Z,4.85
2018-02-12T22:52:01.971Z,5.55
2018-02-12T22:54:29.711Z,5.55
2018-02-12T22:56:57.403Z,5.80
2018-02-12T22:59:25.109Z,5.25
2018-02-12T23:01:52.834Z,4.72
2018-02-12T23:04:21.282Z,4.25
2018-02-12T23:06:48.983Z,5.00
2018-02-12T23:09:17.427Z,5.00
2018-02-12T23:11:45.900Z,6.15
2018-02-12T23:14:13.653Z,10.52
2018-02-12T23:16:46.999Z,4.80
2018-02-12T23:19:15.515Z,4.40
2018-02-12T23:21:43.223Z,5.22
2018-02-12T23:24:10.928Z,4.57
2018-02-12T23:26:38.703Z,4.62
2018-02-12T23:29:06.527Z,4.80
